createdAt,value
2023-04-20T00:00:07.516Z,21.82
2023-04-20T00:01:07.589Z,21.83
2023-04-20T00:02:07.794Z,21.84
2023-04-20T00:03:07.819Z,21.84
2023-04-20T00:04:07.802Z,21.83
2023-04-20T00:05:07.828Z,21.82
2023-04-20T00:06:07.829Z,21.82
2023-04-20T00:07:07.894Z,21.82
2023-04-20T00:08:07.941Z,21.83
2023-04-20T00:09:07.949Z,21.82
2023-04-20T00:10:08.018Z,21.82
2023-04-20T00:11:08.084Z,21.83
2023-04-20T00:12:08.101Z,21.82
2023-04-20T00:13:08.185Z,21.83
2023-04-20T00:14:08.253Z,21.82
2023-04-20T00:15:08.261Z,21.82
2023-04-20T00:16:08.277Z,21.81
2023-04-20T00:17:08.479Z,21.81
2023-04-20T00:18:08.455Z,21.81
2023-04-20T00:19:08.476Z,21.81
2023-04-20T00:20:08.480Z,21.81
2023-04-20T00:21:08.532Z,21.80
2023-04-20T00:22:08.581Z,21.80
2023-04-20T00:23:08.667Z,21.78
2023-04-20T00:24:08.693Z,21.78
2023-04-20T00:25:08.776Z,21.77
2023-04-20T00:26:08.795Z,21.78
2023-04-20T00:27:08.905Z,21.79
2023-04-20T00:28:08.925Z,21.79
2023-04-20T00:29:08.928Z,21.79
2023-04-20T00:30:08.997Z,21.80
2023-04-20T00:31:09.118Z,21.79
2023-04-20T00:32:09.091Z,21.78
2023-04-20T00:33:09.150Z,21.81
2023-04-20T00:34:09.189Z,21.81
2023-04-20T00:35:09.259Z,21.81
2023-04-20T00:36:09.319Z,21.81
2023-04-20T00:37:09.329Z,21.81
2023-04-20T00:38:09.423Z,21.81
2023-04-20T00:39:09.522Z,21.81
2023-04-20T00:40:09.486Z,21.80
2023-04-20T00:41:09.571Z,21.78
2023-04-20T00:42:09.712Z,21.79
2023-04-20T00:43:09.725Z,21.80
2023-04-20T00:44:09.793Z,21.80
2023-04-20T00:45:09.796Z,21.81
2023-04-20T00:46:09.881Z,21.81
2023-04-20T00:47:09.878Z,21.83
2023-04-20T00:48:09.999Z,21.83
2023-04-20T00:49:09.972Z,21.83
2023-04-20T00:50:10.066Z,21.84
2023-04-20T00:51:10.067Z,21.85
2023-04-20T00:52:10.121Z,21.84
2023-04-20T00:53:10.241Z,21.84
2023-04-20T00:54:10.209Z,21.83
2023-04-20T00:55:10.261Z,21.83
2023-04-20T00:56:10.329Z,21.84
2023-04-20T00:57:10.354Z,21.84
2023-04-20T00:58:10.433Z,21.83
2023-04-20T00:59:10.471Z,21.84
2023-04-20T01:00:10.552Z,21.83
2023-04-20T01:01:10.596Z,21.84
2023-04-20T01:02:10.742Z,21.83
2023-04-20T01:03:10.835Z,21.84
2023-04-20T01:04:10.787Z,21.83
2023-04-20T01:05:10.745Z,21.83
2023-04-20T01:06:10.859Z,21.83
2023-04-20T01:07:10.849Z,21.83
2023-04-20T01:08:10.956Z,21.83
2023-04-20T01:09:10.961Z,21.83
2023-04-20T01:10:10.995Z,21.83
2023-04-20T01:11:11.075Z,21.83
2023-04-20T01:12:11.102Z,21.82
2023-04-20T01:13:11.221Z,21.81
2023-04-20T01:14:11.229Z,21.81
2023-04-20T01:15:11.280Z,21.81
2023-04-20T01:16:11.304Z,21.81
2023-04-20T01:17:11.341Z,21.81
2023-04-20T01:18:11.431Z,21.81
2023-04-20T01:19:11.442Z,21.81
2023-04-20T01:20:11.487Z,21.80
2023-04-20T01:21:11.584Z,21.79
2023-04-20T01:22:12.599Z,21.79
2023-04-20T01:23:11.811Z,21.80
2023-04-20T01:24:11.770Z,21.80
2023-04-20T01:25:11.722Z,21.82
2023-04-20T01:26:11.777Z,21.81
2023-04-20T01:27:11.810Z,21.83
2023-04-20T01:28:11.859Z,21.82
2023-04-20T01:29:11.908Z,21.81
2023-04-20T01:30:11.978Z,21.82
2023-04-20T01:31:12.008Z,21.83
2023-04-20T01:32:12.076Z,21.82
2023-04-20T01:33:12.098Z,21.82
2023-04-20T01:34:12.123Z,21.82
2023-04-20T01:35:12.264Z,21.81
2023-04-20T01:36:12.266Z,21.81
2023-04-20T01:37:12.288Z,21.81
2023-04-20T01:38:12.311Z,21.81
2023-04-20T01:39:12.486Z,21.81
2023-04-20T01:40:12.417Z,21.81
2023-04-20T01:41:12.476Z,21.82
2023-04-20T01:42:12.613Z,21.83
2023-04-20T01:43:12.559Z,21.82
2023-04-20T01:44:12.612Z,21.82
2023-04-20T01:45:12.655Z,21.82
2023-04-20T01:46:12.677Z,21.81
2023-04-20T01:47:12.748Z,21.81
2023-04-20T01:48:13.695Z,21.81
2023-04-20T01:49:12.862Z,21.81
2023-04-20T01:50:12.884Z,21.81
2023-04-20T01:51:12.899Z,21.81
2023-04-20T01:52:12.969Z,21.82
2023-04-20T01:53:13.008Z,21.82
2023-04-20T01:54:13.068Z,21.83
2023-04-20T01:55:13.083Z,21.82
2023-04-20T01:56:13.133Z,21.82
2023-04-20T01:57:13.213Z,21.81
2023-04-20T01:58:13.244Z,21.80
2023-04-20T01:59:13.324Z,21.81
2023-04-20T02:00:13.383Z,21.80
2023-04-20T02:01:13.486Z,21.80
2023-04-20T02:02:13.460Z,21.79
2023-04-20T02:03:13.625Z,21.81
2023-04-20T02:04:13.533Z,21.82
2023-04-20T02:05:13.594Z,21.82
2023-04-20T02:06:13.612Z,21.82
2023-04-20T02:07:13.672Z,21.81
2023-04-20T02:08:13.719Z,21.82
2023-04-20T02:09:13.780Z,21.81
2023-04-20T02:10:13.834Z,21.82
2023-04-20T02:11:13.891Z,21.82
2023-04-20T02:12:13.955Z,21.82
2023-04-20T02:13:13.957Z,21.84
2023-04-20T02:14:14.046Z,21.83
2023-04-20T02:15:14.088Z,21.83
2023-04-20T02:16:14.129Z,21.82
2023-04-20T02:17:14.282Z,21.82
2023-04-20T02:18:14.216Z,21.81
2023-04-20T02:19:14.292Z,21.82
2023-04-20T02:20:14.289Z,21.81
2023-04-20T02:21:14.340Z,21.81
2023-04-20T02:22:14.423Z,21.82
2023-04-20T02:23:14.472Z,21.81
2023-04-20T02:24:14.484Z,21.82
2023-04-20T02:25:14.528Z,21.82
2023-04-20T02:26:14.582Z,21.81
2023-04-20T02:27:14.656Z,21.81
2023-04-20T02:28:14.717Z,21.81
2023-04-20T02:29:14.849Z,21.81
2023-04-20T02:30:14.882Z,21.81
2023-04-20T02:31:14.910Z,21.81
2023-04-20T02:32:14.893Z,21.81
2023-04-20T02:33:14.920Z,21.81
2023-04-20T02:34:15.021Z,21.81
2023-04-20T02:35:15.044Z,21.81
2023-04-20T02:36:15.129Z,21.81
2023-04-20T02:37:15.153Z,21.82
2023-04-20T02:38:15.170Z,21.81
2023-04-20T02:39:15.460Z,21.82
2023-04-20T02:40:15.287Z,21.83
2023-04-20T02:41:15.324Z,21.83
2023-04-20T02:42:15.374Z,21.83
2023-04-20T02:43:15.410Z,21.83
2023-04-20T02:44:15.481Z,21.83
2023-04-20T02:45:15.486Z,21.83
2023-04-20T02:46:15.581Z,21.83
2023-04-20T02:47:15.577Z,21.82
2023-04-20T02:48:15.685Z,21.82
2023-04-20T02:49:15.887Z,21.83
2023-04-20T02:50:15.748Z,21.83
2023-04-20T02:51:15.824Z,21.84
2023-04-20T02:52:15.820Z,21.84
2023-04-20T02:53:15.930Z,21.84
2023-04-20T02:54:15.989Z,21.84
2023-04-20T02:55:16.002Z,21.83
2023-04-20T02:56:16.054Z,21.83
2023-04-20T02:57:16.069Z,21.82
2023-04-20T02:58:16.203Z,21.83
2023-04-20T02:59:16.493Z,21.83
2023-04-20T03:00:16.224Z,21.82
2023-04-20T03:01:16.274Z,21.82
2023-04-20T03:02:16.396Z,21.81
2023-04-20T03:03:16.550Z,21.82
2023-04-20T03:04:16.522Z,21.81
2023-04-20T03:05:16.494Z,21.81
2023-04-20T03:06:16.556Z,21.81
2023-04-20T03:07:16.813Z,21.79
2023-04-20T03:08:16.727Z,21.79
2023-04-20T03:09:17.377Z,21.79
2023-04-20T03:10:16.824Z,21.79
2023-04-20T03:11:16.889Z,21.79
2023-04-20T03:12:16.833Z,21.80
2023-04-20T03:13:16.867Z,21.79
2023-04-20T03:14:16.917Z,21.80
2023-04-20T03:15:16.972Z,21.79
2023-04-20T03:16:17.172Z,21.80
2023-04-20T03:17:17.060Z,21.79
2023-04-20T03:18:17.133Z,21.80
2023-04-20T03:19:17.379Z,21.79
2023-04-20T03:20:17.208Z,21.80
2023-04-20T03:21:17.270Z,21.80
2023-04-20T03:22:17.309Z,21.80
2023-04-20T03:23:17.346Z,21.79
2023-04-20T03:24:17.419Z,21.78
2023-04-20T03:25:17.474Z,21.78
2023-04-20T03:26:17.522Z,21.77
2023-04-20T03:27:17.575Z,21.78
2023-04-20T03:28:17.607Z,21.81
2023-04-20T03:29:17.999Z,21.79
2023-04-20T03:30:17.674Z,21.79
2023-04-20T03:31:17.726Z,21.81
2023-04-20T03:32:17.754Z,21.82
2023-04-20T03:33:17.788Z,21.82
2023-04-20T03:34:17.837Z,21.82
2023-04-20T03:35:17.918Z,21.82
2023-04-20T03:36:17.956Z,21.81
2023-04-20T03:37:17.936Z,21.81
2023-04-20T03:38:18.038Z,21.82
2023-04-20T03:39:18.439Z,21.82
2023-04-20T03:40:18.121Z,21.82
2023-04-20T03:41:18.149Z,21.82
2023-04-20T03:42:18.250Z,21.81
2023-04-20T03:43:18.248Z,21.82
2023-04-20T03:44:18.291Z,21.81
2023-04-20T03:45:18.516Z,21.81
2023-04-20T03:46:18.672Z,21.80
2023-04-20T03:47:18.472Z,21.80
2023-04-20T03:48:18.521Z,21.80
2023-04-20T03:49:18.649Z,21.79
2023-04-20T03:50:18.761Z,21.81
2023-04-20T03:51:18.631Z,21.81
2023-04-20T03:52:18.704Z,21.81
2023-04-20T03:53:18.708Z,21.81
2023-04-20T03:54:18.771Z,21.82
2023-04-20T03:55:18.841Z,21.81
2023-04-20T03:56:19.012Z,21.79
2023-04-20T03:57:18.981Z,21.80
2023-04-20T03:58:18.983Z,21.78
2023-04-20T03:59:19.151Z,21.80
2023-04-20T04:00:19.094Z,21.80
2023-04-20T04:01:19.156Z,21.79
2023-04-20T04:02:19.833Z,21.80
2023-04-20T04:03:19.464Z,21.80
2023-04-20T04:04:19.649Z,21.80
2023-04-20T04:05:19.357Z,21.81
2023-04-20T04:06:19.394Z,21.82
2023-04-20T04:07:19.434Z,21.82
2023-04-20T04:08:19.487Z,21.83
2023-04-20T04:09:19.734Z,21.83
2023-04-20T04:10:19.613Z,21.82
2023-04-20T04:11:19.641Z,21.82
2023-04-20T04:12:19.723Z,21.81
2023-04-20T04:13:19.752Z,21.81
2023-04-20T04:14:19.822Z,21.81
2023-04-20T04:15:19.828Z,21.81
2023-04-20T04:16:19.917Z,21.81
2023-04-20T04:17:19.972Z,21.81
2023-04-20T04:18:19.977Z,21.79
2023-04-20T04:19:20.128Z,21.82
2023-04-20T04:20:20.092Z,21.82
2023-04-20T04:21:20.150Z,21.82
2023-04-20T04:22:20.215Z,21.83
2023-04-20T04:23:20.202Z,21.82
2023-04-20T04:24:20.258Z,21.84
2023-04-20T04:25:20.334Z,21.83
2023-04-20T04:26:20.464Z,21.83
2023-04-20T04:27:20.481Z,21.82
2023-04-20T04:28:20.464Z,21.83
2023-04-20T04:29:20.520Z,21.83
2023-04-20T04:30:20.639Z,21.83
2023-04-20T04:31:20.636Z,21.84
2023-04-20T04:32:20.644Z,21.83
2023-04-20T04:33:20.703Z,21.83
2023-04-20T04:34:20.749Z,21.83
2023-04-20T04:35:20.798Z,21.83
2023-04-20T04:36:20.861Z,21.84
2023-04-20T04:37:20.891Z,21.82
2023-04-20T04:38:20.925Z,21.82
2023-04-20T04:39:20.974Z,21.81
2023-04-20T04:40:21.032Z,21.81
2023-04-20T04:41:21.092Z,21.82
2023-04-20T04:42:21.174Z,21.81
2023-04-20T04:43:21.209Z,21.81
2023-04-20T04:44:21.237Z,21.82
2023-04-20T04:45:21.301Z,21.81
2023-04-20T04:46:21.340Z,21.81
2023-04-20T04:47:21.414Z,21.82
2023-04-20T04:48:21.496Z,21.81
2023-04-20T04:49:21.516Z,21.81
2023-04-20T04:50:21.547Z,21.81
2023-04-20T04:51:21.610Z,21.81
2023-04-20T04:52:21.620Z,21.81
2023-04-20T04:53:21.604Z,21.80
2023-04-20T04:54:21.669Z,21.80
2023-04-20T04:55:21.732Z,21.81
2023-04-20T04:56:21.740Z,21.80
2023-04-20T04:57:21.781Z,21.80
2023-04-20T04:58:21.825Z,21.79
2023-04-20T04:59:21.870Z,21.80
2023-04-20T05:00:21.925Z,21.79
2023-04-20T05:01:22.078Z,21.80
2023-04-20T05:02:22.252Z,21.81
2023-04-20T05:03:22.319Z,21.81
2023-04-20T05:04:22.215Z,21.82
2023-04-20T05:05:22.161Z,21.82
2023-04-20T05:06:22.196Z,21.83
2023-04-20T05:07:22.252Z,21.82
2023-04-20T05:08:22.343Z,21.82
2023-04-20T05:09:22.351Z,21.82
2023-04-20T05:10:22.376Z,21.82
2023-04-20T05:11:22.443Z,21.81
2023-04-20T05:12:22.455Z,21.82
2023-04-20T05:13:22.505Z,21.83
2023-04-20T05:14:22.540Z,21.83
2023-04-20T05:15:22.629Z,21.82
2023-04-20T05:16:22.701Z,21.82
2023-04-20T05:17:22.732Z,21.82
2023-04-20T05:18:22.759Z,21.83
2023-04-20T05:19:22.785Z,21.83
2023-04-20T05:20:23.006Z,21.83
2023-04-20T05:21:22.885Z,21.84
2023-04-20T05:22:22.945Z,21.84
2023-04-20T05:23:22.966Z,21.83
2023-04-20T05:24:23.047Z,21.84
2023-04-20T05:25:23.122Z,21.84
2023-04-20T05:26:23.286Z,21.84
2023-04-20T05:27:23.179Z,21.84
2023-04-20T05:28:24.219Z,21.84
2023-04-20T05:29:23.269Z,21.85
2023-04-20T05:30:23.301Z,21.86
2023-04-20T05:31:23.356Z,21.87
2023-04-20T05:32:23.416Z,21.86
2023-04-20T05:33:23.491Z,21.85
2023-04-20T05:34:25.262Z,21.86
2023-04-20T05:35:23.516Z,21.82
2023-04-20T05:36:23.604Z,21.80
2023-04-20T05:37:23.645Z,21.84
2023-04-20T05:38:23.650Z,21.87
2023-04-20T05:39:23.723Z,21.87
2023-04-20T05:40:23.744Z,21.86
2023-04-20T05:41:23.827Z,21.85
2023-04-20T05:42:23.819Z,21.82
2023-04-20T05:43:23.936Z,21.82
2023-04-20T05:44:23.963Z,21.80
2023-04-20T05:45:24.010Z,21.80
2023-04-20T05:46:24.108Z,21.76
2023-04-20T05:47:24.208Z,21.75
2023-04-20T05:48:24.177Z,21.75
2023-04-20T05:49:24.716Z,21.75
2023-04-20T05:50:24.272Z,21.73
2023-04-20T05:51:24.380Z,21.74
2023-04-20T05:52:24.440Z,21.77
2023-04-20T05:53:25.247Z,21.79
2023-04-20T05:54:24.723Z,21.83
2023-04-20T05:55:24.644Z,21.85
2023-04-20T05:56:24.607Z,21.84
2023-04-20T05:57:24.691Z,21.85
2023-04-20T05:58:24.732Z,21.85
2023-04-20T05:59:24.824Z,21.84
2023-04-20T06:00:26.266Z,21.84
2023-04-20T06:01:24.845Z,21.84
2023-04-20T06:02:25.078Z,21.84
2023-04-20T06:03:25.159Z,21.83
2023-04-20T06:04:25.264Z,21.83
2023-04-20T06:05:25.204Z,21.83
2023-04-20T06:06:25.089Z,21.83
2023-04-20T06:07:25.145Z,21.84
2023-04-20T06:08:25.199Z,21.84
2023-04-20T06:09:25.347Z,21.82
2023-04-20T06:10:25.298Z,21.82
2023-04-20T06:11:25.390Z,21.82
2023-04-20T06:12:26.811Z,21.82
2023-04-20T06:13:25.478Z,21.84
2023-04-20T06:14:25.512Z,21.82
2023-04-20T06:15:25.581Z,21.84
2023-04-20T06:16:25.579Z,21.86
2023-04-20T06:17:25.620Z,21.87
2023-04-20T06:18:25.730Z,21.88
2023-04-20T06:19:25.729Z,21.89
2023-04-20T06:20:25.788Z,21.90
2023-04-20T06:21:25.808Z,21.90
2023-04-20T06:22:25.889Z,21.88
2023-04-20T06:23:25.871Z,21.88
2023-04-20T06:24:26.009Z,21.88
2023-04-20T06:25:25.959Z,21.88
2023-04-20T06:26:26.059Z,21.88
2023-04-20T06:27:26.053Z,21.87
2023-04-20T06:28:26.107Z,21.88
2023-04-20T06:29:26.180Z,21.87
2023-04-20T06:30:26.209Z,21.88
2023-04-20T06:31:26.322Z,21.89
2023-04-20T06:32:26.334Z,21.89
2023-04-20T06:33:26.350Z,21.88
2023-04-20T06:34:26.415Z,21.87
2023-04-20T06:35:26.454Z,21.85
2023-04-20T06:36:26.504Z,21.87
2023-04-20T06:37:26.674Z,21.86
2023-04-20T06:38:26.606Z,21.84
2023-04-20T06:39:26.683Z,21.83
2023-04-20T06:40:26.770Z,21.81
2023-04-20T06:41:26.734Z,21.81
2023-04-20T06:42:26.808Z,21.80
2023-04-20T06:43:26.847Z,21.83
2023-04-20T06:44:27.247Z,21.84
2023-04-20T06:45:26.948Z,21.85
2023-04-20T06:46:27.102Z,21.85
2023-04-20T06:47:27.847Z,21.84
2023-04-20T06:48:32.399Z,21.86
2023-04-20T06:49:28.327Z,21.87
2023-04-20T06:50:27.049Z,21.86
2023-04-20T06:51:27.036Z,21.87
2023-04-20T06:52:27.051Z,21.87
2023-04-20T06:53:27.035Z,21.89
2023-04-20T06:54:27.752Z,21.90
2023-04-20T06:55:27.805Z,21.90
2023-04-20T06:56:27.028Z,21.91
2023-04-20T06:57:27.048Z,21.91
2023-04-20T06:58:27.063Z,21.91
2023-04-20T06:59:27.247Z,21.92
2023-04-20T07:00:27.057Z,21.96
2023-04-20T07:01:27.090Z,21.95
2023-04-20T07:02:27.936Z,21.96
2023-04-20T07:03:27.485Z,21.97
2023-04-20T07:04:27.194Z,21.99
2023-04-20T07:05:27.229Z,22.01
2023-04-20T07:06:27.250Z,22.04
2023-04-20T07:07:27.278Z,22.04
2023-04-20T07:08:27.302Z,22.06
2023-04-20T07:09:27.374Z,22.05
2023-04-20T07:10:27.428Z,22.04
2023-04-20T07:11:27.431Z,22.01
2023-04-20T07:12:27.468Z,22.01
2023-04-20T07:13:28.917Z,22.00
2023-04-20T07:14:27.540Z,21.99
2023-04-20T07:15:27.485Z,21.98
2023-04-20T07:16:27.524Z,21.98
2023-04-20T07:17:27.498Z,21.97
2023-04-20T07:18:27.486Z,21.98
2023-04-20T07:19:27.499Z,21.98
2023-04-20T07:20:27.465Z,21.98
2023-04-20T07:21:27.476Z,21.98
2023-04-20T07:22:27.442Z,21.97
2023-04-20T07:23:27.429Z,21.97
2023-04-20T07:24:27.433Z,22.03
2023-04-20T07:25:27.444Z,22.04
2023-04-20T07:26:27.415Z,22.07
2023-04-20T07:27:27.403Z,22.07
2023-04-20T07:28:27.413Z,22.09
2023-04-20T07:29:27.397Z,22.07
2023-04-20T07:30:27.518Z,22.06
2023-04-20T07:31:27.474Z,22.08
2023-04-20T07:32:27.437Z,22.10
2023-04-20T07:33:27.374Z,22.11
2023-04-20T07:34:28.244Z,22.13
2023-04-20T07:35:27.361Z,22.12
2023-04-20T07:36:27.376Z,22.10
2023-04-20T07:37:27.454Z,22.10
2023-04-20T07:38:27.333Z,22.10
2023-04-20T07:39:27.437Z,22.11
2023-04-20T07:40:27.351Z,22.11
2023-04-20T07:41:27.494Z,22.10
2023-04-20T07:42:27.369Z,22.13
2023-04-20T07:43:27.356Z,22.15
2023-04-20T07:44:27.350Z,22.17
2023-04-20T07:45:27.316Z,22.17
2023-04-20T07:46:27.312Z,22.17
2023-04-20T07:47:27.319Z,22.19
2023-04-20T07:48:27.279Z,22.19
2023-04-20T07:49:27.755Z,22.19
2023-04-20T07:50:27.342Z,22.18
2023-04-20T07:51:27.299Z,22.16
2023-04-20T07:52:27.251Z,22.14
2023-04-20T07:53:27.290Z,22.13
2023-04-20T07:54:27.251Z,22.12
2023-04-20T07:55:27.272Z,22.12
2023-04-20T07:56:27.220Z,22.10
2023-04-20T07:57:27.265Z,22.08
2023-04-20T07:58:27.301Z,22.08
2023-04-20T07:59:27.344Z,22.08
2023-04-20T08:00:27.352Z,22.06
2023-04-20T08:01:27.393Z,22.06
2023-04-20T08:02:27.538Z,22.06
2023-04-20T08:03:27.676Z,22.06
2023-04-20T08:04:27.920Z,22.06
2023-04-20T08:05:27.610Z,22.07
2023-04-20T08:06:27.565Z,22.07
2023-04-20T08:07:27.596Z,22.08
2023-04-20T08:08:27.662Z,22.07
2023-04-20T08:09:27.792Z,22.05
2023-04-20T08:10:27.755Z,22.06
2023-04-20T08:11:27.792Z,22.08
2023-04-20T08:12:27.813Z,22.08
2023-04-20T08:13:27.860Z,22.10
2023-04-20T08:14:27.925Z,22.10
2023-04-20T08:15:28.069Z,22.11
2023-04-20T08:16:28.039Z,22.12
2023-04-20T08:17:28.009Z,22.11
2023-04-20T08:18:28.003Z,22.09
2023-04-20T08:19:28.277Z,22.08
2023-04-20T08:20:28.045Z,22.10
2023-04-20T08:21:28.756Z,22.09
2023-04-20T08:22:28.395Z,22.09
2023-04-20T08:23:28.137Z,22.08
2023-04-20T08:24:28.184Z,22.07
2023-04-20T08:25:28.236Z,22.06
2023-04-20T08:26:28.268Z,22.13
2023-04-20T08:27:28.259Z,22.20
2023-04-20T08:28:33.559Z,22.22
2023-04-20T08:29:29.790Z,22.24
2023-04-20T08:30:28.788Z,22.26
2023-04-20T08:31:30.809Z,22.26
2023-04-20T08:32:28.444Z,22.26
2023-04-20T08:33:28.571Z,22.25
2023-04-20T08:34:28.811Z,22.26
2023-04-20T08:35:28.511Z,22.26
2023-04-20T08:36:28.556Z,22.27
2023-04-20T08:37:30.064Z,22.27
2023-04-20T08:38:33.875Z,22.25
2023-04-20T08:39:29.573Z,22.24
2023-04-20T08:40:28.519Z,22.20
2023-04-20T08:41:28.578Z,22.15
2023-04-20T08:42:28.572Z,22.16
2023-04-20T08:43:28.566Z,22.14
2023-04-20T08:44:28.826Z,22.17
2023-04-20T08:45:28.855Z,22.13
2023-04-20T08:46:28.515Z,22.09
2023-04-20T08:47:28.505Z,22.09
2023-04-20T08:48:28.467Z,22.10
2023-04-20T08:49:28.826Z,22.13
2023-04-20T08:50:28.494Z,22.11
2023-04-20T08:51:28.455Z,22.11
2023-04-20T08:52:28.433Z,22.12
2023-04-20T08:53:28.475Z,22.13
2023-04-20T08:54:28.865Z,22.12
2023-04-20T08:55:28.430Z,22.10
2023-04-20T08:56:28.461Z,22.13
2023-04-20T08:57:28.412Z,22.12
2023-04-20T08:58:28.391Z,22.11
2023-04-20T08:59:28.475Z,22.09
2023-04-20T09:00:28.432Z,22.07
2023-04-20T09:01:34.675Z,22.07
2023-04-20T09:02:29.720Z,22.07
2023-04-20T09:03:28.673Z,22.07
2023-04-20T09:04:28.778Z,22.06
2023-04-20T09:05:29.401Z,22.08
2023-04-20T09:06:28.439Z,22.08
2023-04-20T09:07:28.450Z,22.09
2023-04-20T09:08:28.420Z,22.11
2023-04-20T09:09:28.847Z,22.13
2023-04-20T09:10:28.467Z,22.14
2023-04-20T09:11:28.408Z,22.14
2023-04-20T09:12:28.415Z,22.12
2023-04-20T09:13:28.378Z,22.13
2023-04-20T09:14:28.811Z,22.16
2023-04-20T09:15:28.369Z,22.20
2023-04-20T09:16:28.396Z,22.22
2023-04-20T09:17:28.366Z,22.26
2023-04-20T09:18:28.333Z,22.29
2023-04-20T09:19:28.344Z,22.32
2023-04-20T09:20:28.378Z,22.32
2023-04-20T09:21:28.318Z,22.31
2023-04-20T09:22:28.993Z,22.29
2023-04-20T09:23:28.429Z,22.31
2023-04-20T09:24:28.306Z,22.31
2023-04-20T09:25:28.988Z,22.29
2023-04-20T09:26:28.285Z,22.30
2023-04-20T09:27:28.289Z,22.31
2023-04-20T09:28:28.328Z,22.29
2023-04-20T09:29:28.300Z,22.29
2023-04-20T09:30:28.275Z,22.28
2023-04-20T09:31:28.396Z,22.24
2023-04-20T09:32:28.345Z,22.24
2023-04-20T09:33:28.244Z,22.24
2023-04-20T09:34:28.342Z,22.21
2023-04-20T09:35:28.272Z,22.22
2023-04-20T09:36:28.219Z,22.18
2023-04-20T09:37:28.233Z,22.19
2023-04-20T09:38:28.262Z,22.20
2023-04-20T09:39:28.336Z,22.19
2023-04-20T09:40:28.234Z,22.17
2023-04-20T09:41:28.281Z,22.15
2023-04-20T09:42:28.326Z,22.15
2023-04-20T09:43:28.796Z,22.15
2023-04-20T09:44:28.397Z,22.15
2023-04-20T09:45:28.308Z,22.14
2023-04-20T09:46:28.330Z,22.13
2023-04-20T09:47:28.290Z,22.12
2023-04-20T09:48:29.150Z,22.11
2023-04-20T09:49:28.419Z,22.10
2023-04-20T09:50:38.178Z,22.13
2023-04-20T09:51:29.450Z,22.13
2023-04-20T09:52:28.399Z,22.12
2023-04-20T09:53:28.391Z,22.11
2023-04-20T09:54:28.451Z,22.12
2023-04-20T09:55:28.450Z,22.12
2023-04-20T09:56:28.372Z,22.13
2023-04-20T09:57:28.377Z,22.14
2023-04-20T09:58:28.396Z,22.13
2023-04-20T09:59:28.408Z,22.14
2023-04-20T10:00:28.365Z,22.14
2023-04-20T10:01:28.354Z,22.15
2023-04-20T10:02:28.481Z,22.14
2023-04-20T10:03:28.472Z,22.13
2023-04-20T10:04:28.509Z,22.12
2023-04-20T10:05:28.435Z,22.14
2023-04-20T10:06:28.324Z,22.14
2023-04-20T10:07:28.372Z,22.13
2023-04-20T10:08:28.349Z,22.15
2023-04-20T10:09:28.345Z,22.16
2023-04-20T10:10:28.687Z,22.17
2023-04-20T10:11:31.701Z,22.19
2023-04-20T10:12:29.388Z,22.19
2023-04-20T10:13:28.364Z,22.20
2023-04-20T10:14:28.436Z,22.21
2023-04-20T10:15:28.375Z,22.20
2023-04-20T10:16:28.402Z,22.19
2023-04-20T10:17:28.452Z,22.20
2023-04-20T10:18:28.421Z,22.18
2023-04-20T10:19:28.351Z,22.18
2023-04-20T10:20:28.369Z,22.17
2023-04-20T10:21:28.501Z,22.16
2023-04-20T10:22:28.341Z,22.12
2023-04-20T10:23:28.303Z,22.09
2023-04-20T10:24:28.325Z,22.08
2023-04-20T10:25:28.404Z,22.05
2023-04-20T10:26:28.303Z,22.05
2023-04-20T10:27:28.837Z,22.04
2023-04-20T10:28:28.267Z,22.07
2023-04-20T10:29:28.410Z,22.09
2023-04-20T10:30:28.318Z,22.13
2023-04-20T10:31:28.300Z,22.21
2023-04-20T10:32:28.312Z,22.31
2023-04-20T10:33:28.273Z,22.37
2023-04-20T10:34:28.351Z,22.42
2023-04-20T10:35:28.433Z,22.47
2023-04-20T10:36:28.399Z,22.49
2023-04-20T10:37:28.360Z,22.51
2023-04-20T10:38:28.502Z,22.51
2023-04-20T10:39:29.386Z,22.49
2023-04-20T10:40:28.466Z,22.48
2023-04-20T10:41:28.537Z,22.47
2023-04-20T10:42:28.547Z,22.47
2023-04-20T10:43:28.557Z,22.46
2023-04-20T10:44:28.838Z,22.46
2023-04-20T10:45:28.600Z,22.44
2023-04-20T10:46:28.781Z,22.44
2023-04-20T10:47:29.364Z,22.42
2023-04-20T10:48:28.639Z,22.42
2023-04-20T10:49:28.818Z,22.42
2023-04-20T10:50:28.660Z,22.42
2023-04-20T10:51:28.649Z,22.42
2023-04-20T10:52:28.630Z,22.42
2023-04-20T10:53:28.662Z,22.43
2023-04-20T10:54:28.622Z,22.43
2023-04-20T10:55:28.620Z,22.40
2023-04-20T10:56:28.658Z,22.40
2023-04-20T10:57:28.620Z,22.40
2023-04-20T10:58:28.634Z,22.40
2023-04-20T10:59:28.675Z,22.41
2023-04-20T11:00:28.644Z,22.42
2023-04-20T11:01:28.687Z,22.41
2023-04-20T11:02:28.870Z,22.40
2023-04-20T11:03:29.527Z,22.40
2023-04-20T11:04:28.873Z,22.41
2023-04-20T11:05:28.643Z,22.41
2023-04-20T11:06:29.321Z,22.42
2023-04-20T11:07:28.697Z,22.41
2023-04-20T11:08:28.666Z,22.39
2023-04-20T11:09:28.705Z,22.37
2023-04-20T11:10:28.664Z,22.40
2023-04-20T11:11:28.644Z,22.41
2023-04-20T11:12:28.703Z,22.44
2023-04-20T11:13:28.702Z,22.44
2023-04-20T11:14:28.919Z,22.45
2023-04-20T11:15:28.680Z,22.43
2023-04-20T11:16:44.275Z,22.38
2023-04-20T11:17:29.814Z,22.39
2023-04-20T11:18:29.604Z,22.39
2023-04-20T11:19:28.826Z,22.37
2023-04-20T11:20:28.712Z,22.41
2023-04-20T11:21:28.653Z,22.45
2023-04-20T11:22:28.773Z,22.45
2023-04-20T11:23:28.659Z,22.50
2023-04-20T11:24:28.677Z,22.52
2023-04-20T11:25:28.633Z,22.51
2023-04-20T11:26:28.610Z,22.49
2023-04-20T11:27:28.622Z,22.50
2023-04-20T11:28:28.604Z,22.48
2023-04-20T11:29:28.630Z,22.45
2023-04-20T11:30:28.589Z,22.41
2023-04-20T11:31:28.644Z,22.39
2023-04-20T11:32:28.839Z,22.38
2023-04-20T11:33:28.657Z,22.38
2023-04-20T11:34:28.664Z,22.41
2023-04-20T11:35:28.597Z,22.41
2023-04-20T11:36:28.549Z,22.42
2023-04-20T11:37:28.548Z,22.45
2023-04-20T11:38:28.558Z,22.43
2023-04-20T11:39:28.885Z,22.44
2023-04-20T11:40:29.040Z,22.44
2023-04-20T11:41:28.533Z,22.42
2023-04-20T11:42:28.534Z,22.41
2023-04-20T11:43:28.529Z,22.41
2023-04-20T11:44:28.871Z,22.41
2023-04-20T11:45:28.541Z,22.39
2023-04-20T11:46:28.685Z,22.38
2023-04-20T11:47:28.508Z,22.38
2023-04-20T11:48:28.473Z,22.37
2023-04-20T11:49:28.948Z,22.37
2023-04-20T11:50:28.910Z,22.34
2023-04-20T11:51:28.549Z,22.34
2023-04-20T11:52:28.482Z,22.34
2023-04-20T11:53:28.487Z,22.35
2023-04-20T11:54:29.373Z,22.36
2023-04-20T11:55:29.440Z,22.35
2023-04-20T11:56:28.722Z,22.36
2023-04-20T11:57:28.510Z,22.35
2023-04-20T11:58:28.497Z,22.38
2023-04-20T11:59:28.574Z,22.40
2023-04-20T12:00:28.498Z,22.40
2023-04-20T12:01:29.356Z,22.41
2023-04-20T12:02:28.627Z,22.42
2023-04-20T12:03:28.769Z,22.43
2023-04-20T12:04:28.955Z,22.44
2023-04-20T12:05:28.592Z,22.44
2023-04-20T12:06:28.546Z,22.41
2023-04-20T12:07:28.530Z,22.38
2023-04-20T12:08:28.504Z,22.38
2023-04-20T12:09:28.532Z,22.38
2023-04-20T12:10:28.547Z,22.37
2023-04-20T12:11:28.549Z,22.38
2023-04-20T12:12:28.510Z,22.40
2023-04-20T12:13:28.537Z,22.40
2023-04-20T12:14:28.527Z,22.39
2023-04-20T12:15:28.604Z,22.39
2023-04-20T12:16:28.632Z,22.42
2023-04-20T12:17:28.533Z,22.38
2023-04-20T12:18:28.528Z,22.35
2023-04-20T12:19:28.518Z,22.33
2023-04-20T12:20:28.573Z,22.32
2023-04-20T12:21:28.531Z,22.31
2023-04-20T12:22:28.563Z,22.28
2023-04-20T12:23:28.547Z,22.28
2023-04-20T12:24:28.525Z,22.22
2023-04-20T12:25:28.591Z,22.21
2023-04-20T12:26:37.207Z,22.21
2023-04-20T12:27:29.550Z,22.20
2023-04-20T12:28:28.566Z,22.21
2023-04-20T12:29:28.541Z,22.17
2023-04-20T12:30:28.550Z,22.15
2023-04-20T12:31:28.561Z,22.13
2023-04-20T12:32:28.527Z,22.12
2023-04-20T12:33:28.504Z,22.09
2023-04-20T12:34:28.507Z,22.06
2023-04-20T12:35:28.503Z,22.06
2023-04-20T12:36:28.524Z,22.06
2023-04-20T12:37:28.478Z,22.06
2023-04-20T12:38:28.542Z,22.06
2023-04-20T12:39:28.494Z,22.06
2023-04-20T12:40:28.482Z,22.06
2023-04-20T12:41:28.537Z,22.06
2023-04-20T12:42:28.477Z,22.06
2023-04-20T12:43:28.456Z,22.05
2023-04-20T12:44:28.462Z,22.05
2023-04-20T12:45:28.875Z,22.05
2023-04-20T12:46:28.515Z,22.05
2023-04-20T12:47:28.464Z,22.05
2023-04-20T12:48:28.429Z,22.06
2023-04-20T12:49:28.440Z,22.06
2023-04-20T12:50:28.424Z,22.08
2023-04-20T12:51:28.480Z,22.08
2023-04-20T12:52:28.475Z,22.08